Time;durP1;ratioP1;P1;durP2;ratioP2;P2;SDS_P1;SDS_P2;PMS_P1;PMS_P2;Temp;Humidity;BMP_temperature;BMP_pressure;BME280_temperature;BME280_humidity;BME280_pressure;Samples;Min_cycle;Max_cycle;Signal;HPM_P1;HPM_P2
2023/03/29 00:01:31;;;;;;;5.97;4.70;;;4.80;99.90;;;;;;5098920;28;20203;-78
2023/03/29 00:03:59;;;;;;;5.17;4.67;;;4.80;99.90;;;;;;5098180;28;20261;-76
2023/03/29 00:06:31;;;;;;;8.53;4.67;;;4.80;99.90;;;;;;5096810;28;20549;-76
2023/03/29 00:08:58;;;;;;;6.63;4.40;;;4.80;99.90;;;;;;5096074;28;20199;-76
2023/03/29 00:11:27;;;;;;;5.83;4.50;;;4.80;99.90;;;;;;5095834;28;20695;-77
2023/03/29 00:13:54;;;;;;;6.10;4.43;;;4.80;99.90;;;;;;5096164;28;20228;-77
2023/03/29 00:16:20;;;;;;;6.90;5.07;;;4.80;99.90;;;;;;5095851;28;20568;-77
2023/03/29 00:18:47;;;;;;;7.13;4.83;;;4.80;99.90;;;;;;5095762;28;20675;-78
2023/03/29 00:21:14;;;;;;;7.20;5.07;;;4.80;99.90;;;;;;5095812;28;20663;-78
2023/03/29 00:23:40;;;;;;;5.10;4.37;;;4.90;99.90;;;;;;5095546;28;20226;-76
2023/03/29 00:26:07;;;;;;;6.90;4.03;;;4.90;99.90;;;;;;5095605;28;20231;-77
2023/03/29 00:28:35;;;;;;;4.50;3.90;;;4.90;99.90;;;;;;5095816;28;20196;-78
2023/03/29 00:31:07;;;;;;;4.30;3.90;;;4.90;99.90;;;;;;5095715;28;20200;-77
2023/03/29 00:33:34;;;;;;;7.47;4.40;;;4.90;99.90;;;;;;5095484;28;20264;-77
2023/03/29 00:36:02;;;;;;;5.23;3.70;;;4.80;99.90;;;;;;5095579;28;20200;-77
2023/03/29 00:38:29;;;;;;;4.57;3.60;;;4.80;99.90;;;;;;5095519;28;20298;-77
2023/03/29 00:40:56;;;;;;;3.83;3.40;;;4.70;99.90;;;;;;5095317;28;20721;-77
2023/03/29 00:43:23;;;;;;;4.60;4.00;;;4.70;99.90;;;;;;5095577;28;20196;-77
2023/03/29 00:45:51;;;;;;;3.90;3.17;;;4.70;99.90;;;;;;5095463;28;20226;-77
2023/03/29 00:48:22;;;;;;;3.87;3.47;;;4.60;99.90;;;;;;5095322;28;20236;-77
2023/03/29 00:50:52;;;;;;;4.07;3.37;;;4.60;99.90;;;;;;5095357;28;20253;-77
2023/03/29 00:53:25;;;;;;;4.23;2.93;;;4.60;99.90;;;;;;5095316;28;20196;-77
2023/03/29 00:55:55;;;;;;;3.60;2.83;;;4.60;99.90;;;;;;5094271;28;20200;-76
2023/03/29 00:58:28;;;;;;;3.30;2.93;;;4.50;99.90;;;;;;5095310;28;20227;-77
2023/03/29 01:01:01;;;;;;;4.07;2.73;;;4.50;99.90;;;;;;5095164;28;20277;-77
2023/03/29 01:03:31;;;;;;;4.50;3.13;;;4.50;99.90;;;;;;5095076;28;20204;-77
2023/03/29 01:06:03;;;;;;;3.80;3.40;;;4.50;99.90;;;;;;5094820;28;20203;-77
2023/03/29 01:08:34;;;;;;;4.83;3.43;;;4.40;99.90;;;;;;5095075;28;20286;-77
2023/03/29 01:11:06;;;;;;;5.00;3.20;;;4.40;99.90;;;;;;5095014;28;20208;-77
2023/03/29 01:13:38;;;;;;;4.63;3.17;;;4.40;99.90;;;;;;5094828;28;20212;-77
2023/03/29 01:16:09;;;;;;;3.60;3.30;;;4.30;99.90;;;;;;5094747;28;20305;-76
2023/03/29 01:18:35;;;;;;;4.90;3.23;;;4.30;99.90;;;;;;5094950;28;20204;-77
2023/03/29 01:21:18;;;;;;;4.47;3.27;;;4.30;99.90;;;;;;5094856;28;20235;-77
2023/03/29 01:24:07;;;;;;;3.73;2.97;;;4.20;99.90;;;;;;5094564;28;20674;-77
2023/03/29 01:26:49;;;;;;;6.10;3.33;;;4.20;99.90;;;;;;5094500;28;20325;-77
2023/03/29 01:29:23;;;;;;;3.90;3.10;;;4.20;99.90;;;;;;5094441;28;20663;-77
2023/03/29 01:31:54;;;;;;;4.53;3.53;;;4.20;99.90;;;;;;5094483;28;20203;-77
2023/03/29 01:34:27;;;;;;;4.70;3.20;;;4.20;99.90;;;;;;5094301;28;20236;-76
2023/03/29 01:36:59;;;;;;;4.57;3.30;;;4.20;99.90;;;;;;5094296;28;20195;-77
2023/03/29 01:39:26;;;;;;;4.67;3.47;;;4.20;99.90;;;;;;5094531;28;20215;-77
2023/03/29 01:42:02;;;;;;;4.50;3.70;;;4.10;99.90;;;;;;5094402;28;20200;-77
2023/03/29 01:44:37;;;;;;;4.77;3.37;;;4.10;99.90;;;;;;5094361;28;20231;-77
2023/03/29 01:47:11;;;;;;;4.63;3.60;;;4.10;99.90;;;;;;5094164;28;20260;-77
2023/03/29 01:49:41;;;;;;;4.67;4.03;;;4.10;99.90;;;;;;5094209;28;20233;-77
2023/03/29 01:52:15;;;;;;;5.07;3.63;;;4.10;99.90;;;;;;5094220;28;20203;-77
2023/03/29 01:54:46;;;;;;;4.80;4.23;;;4.10;99.90;;;;;;5094024;28;20273;-77
2023/03/29 01:57:14;;;;;;;4.43;3.53;;;4.10;99.90;;;;;;5094043;28;20239;-77
2023/03/29 01:59:46;;;;;;;4.37;3.40;;;4.10;99.90;;;;;;5093836;28;20725;-75
2023/03/29 02:02:15;;;;;;;3.90;3.33;;;4.10;99.90;;;;;;5093829;28;20282;-78
2023/03/29 02:04:46;;;;;;;5.80;3.30;;;4.10;99.90;;;;;;5094176;28;20208;-78
2023/03/29 02:07:16;;;;;;;3.93;3.50;;;4.10;99.90;;;;;;5093686;28;20227;-77
2023/03/29 02:09:43;;;;;;;5.67;3.50;;;4.20;99.90;;;;;;5093781;28;20252;-74
2023/03/29 02:12:11;;;;;;;7.10;4.33;;;4.20;99.90;;;;;;5093700;28;20250;-76
2023/03/29 02:14:39;;;;;;;3.37;2.93;;;4.10;99.90;;;;;;5093725;28;20220;-75
2023/03/29 02:17:18;;;;;;;3.97;3.47;;;4.20;99.90;;;;;;5093696;28;20203;-75
2023/03/29 02:19:49;;;;;;;4.17;3.50;;;4.10;99.90;;;;;;5093747;28;20199;-76
2023/03/29 02:22:22;;;;;;;4.80;3.60;;;4.10;99.90;;;;;;5093618;28;20258;-76
2023/03/29 02:24:52;;;;;;;5.53;3.23;;;4.10;99.90;;;;;;5093494;28;20283;-75
2023/03/29 02:27:19;;;;;;;5.17;3.40;;;4.10;99.90;;;;;;5093577;28;20204;-76
2023/03/29 02:29:46;;;;;;;4.90;3.93;;;4.00;99.90;;;;;;5093596;28;20285;-76
2023/03/29 02:32:20;;;;;;;4.57;3.40;;;4.00;99.90;;;;;;5093451;28;20206;-76
2023/03/29 02:34:50;;;;;;;4.33;3.50;;;4.00;99.90;;;;;;5093195;28;20251;-76
2023/03/29 02:37:20;;;;;;;5.77;3.43;;;4.00;99.90;;;;;;5093249;28;20242;-75
2023/03/29 02:39:48;;;;;;;3.97;3.30;;;3.90;99.90;;;;;;5093465;28;20198;-76
2023/03/29 02:42:18;;;;;;;7.40;3.93;;;3.90;99.90;;;;;;5093351;28;20192;-76
2023/03/29 02:44:46;;;;;;;4.40;3.60;;;3.90;99.90;;;;;;5093266;28;20196;-76
2023/03/29 02:47:19;;;;;;;5.87;3.43;;;3.90;99.90;;;;;;5093149;28;20659;-76
2023/03/29 02:49:46;;;;;;;5.37;3.87;;;3.90;99.90;;;;;;5093062;28;20553;-78
2023/03/29 02:52:16;;;;;;;3.73;3.33;;;3.90;99.90;;;;;;5093259;28;20224;-77
2023/03/29 02:54:45;;;;;;;5.03;3.30;;;3.90;99.90;;;;;;5093149;28;20227;-77
2023/03/29 02:57:12;;;;;;;4.20;3.60;;;3.90;99.90;;;;;;5093060;28;20234;-76
2023/03/29 02:59:39;;;;;;;4.93;3.30;;;3.90;99.90;;;;;;5093060;28;20192;-76
2023/03/29 03:02:07;;;;;;;5.23;3.33;;;3.90;99.90;;;;;;5092987;28;20246;-76
2023/03/29 03:04:35;;;;;;;4.80;3.70;;;3.90;99.90;;;;;;5092765;28;20649;-76
2023/03/29 03:07:03;;;;;;;5.27;3.77;;;3.80;99.90;;;;;;5092890;28;20206;-77
2023/03/29 03:09:30;;;;;;;6.93;4.20;;;3.80;99.90;;;;;;5097673;28;20202;-78
2023/03/29 03:11:56;;;;;;;5.90;3.90;;;3.90;99.90;;;;;;5093004;28;20756;-78
2023/03/29 03:14:23;;;;;;;4.93;3.67;;;3.80;99.90;;;;;;5092960;28;20255;-77
2023/03/29 03:16:51;;;;;;;6.90;4.00;;;3.80;99.90;;;;;;5092924;28;20233;-77
2023/03/29 03:19:18;;;;;;;6.07;4.00;;;3.80;99.90;;;;;;5094666;28;20199;-78
2023/03/29 03:21:46;;;;;;;5.90;3.97;;;3.80;99.90;;;;;;5097274;28;20203;-78
2023/03/29 03:24:14;;;;;;;5.17;4.30;;;3.80;99.90;;;;;;5097090;28;20556;-78
2023/03/29 03:26:41;;;;;;;5.60;4.37;;;3.80;99.90;;;;;;5096974;28;20290;-78
2023/03/29 03:29:07;;;;;;;4.47;3.90;;;3.80;99.90;;;;;;5097010;28;20624;-77
2023/03/29 03:31:34;;;;;;;4.77;4.13;;;3.80;99.90;;;;;;5096661;28;20250;-77
2023/03/29 03:34:00;;;;;;;4.80;4.07;;;3.80;99.90;;;;;;5096558;28;20289;-78
2023/03/29 03:36:27;;;;;;;5.37;3.90;;;3.90;99.90;;;;;;5096958;28;20231;-78
2023/03/29 03:38:55;;;;;;;4.17;3.77;;;3.90;99.90;;;;;;5096657;28;20560;-77
2023/03/29 03:41:22;;;;;;;4.93;4.20;;;3.90;99.90;;;;;;5096721;28;20278;-76
2023/03/29 03:43:49;;;;;;;5.33;4.63;;;3.80;99.90;;;;;;5096514;28;20244;-77
2023/03/29 03:46:16;;;;;;;5.20;4.53;;;3.90;99.90;;;;;;5096411;28;20199;-78
2023/03/29 03:48:43;;;;;;;5.50;4.30;;;3.90;99.90;;;;;;5096607;28;20199;-77
2023/03/29 03:51:10;;;;;;;5.40;4.70;;;3.80;99.90;;;;;;5096584;28;20226;-78
2023/03/29 03:53:37;;;;;;;6.03;4.73;;;3.80;99.90;;;;;;5096365;28;20617;-78
2023/03/29 03:56:07;;;;;;;5.27;4.27;;;3.90;99.90;;;;;;5096242;28;20272;-77
2023/03/29 03:58:34;;;;;;;7.93;4.67;;;3.80;99.90;;;;;;5096615;28;20201;-77
2023/03/29 04:01:01;;;;;;;5.27;4.40;;;3.90;99.90;;;;;;5118693;28;20199;-76
2023/03/29 04:03:28;;;;;;;8.33;5.17;;;3.90;99.90;;;;;;5109549;28;20207;-77
2023/03/29 04:05:58;;;;;;;6.33;4.67;;;3.90;99.90;;;;;;5096673;28;20205;-78
2023/03/29 04:08:24;;;;;;;8.07;4.87;;;3.80;99.90;;;;;;5096972;28;20200;-78
2023/03/29 04:10:52;;;;;;;6.10;5.33;;;3.80;99.90;;;;;;5096772;28;20231;-78
2023/03/29 04:13:21;;;;;;;9.60;5.40;;;3.80;99.90;;;;;;5097039;28;20203;-77
2023/03/29 04:15:52;;;;;;;9.93;5.20;;;3.80;99.90;;;;;;5096593;28;20665;-81
2023/03/29 04:18:19;;;;;;;6.13;5.20;;;3.80;99.90;;;;;;5096384;28;20313;-78
2023/03/29 04:20:47;;;;;;;6.67;5.20;;;3.80;99.90;;;;;;5096555;28;20200;-77
2023/03/29 04:23:14;;;;;;;7.97;5.77;;;3.80;99.90;;;;;;5096070;28;20694;-77
2023/03/29 04:25:41;;;;;;;6.80;5.20;;;3.80;99.90;;;;;;5095653;28;20564;-76
2023/03/29 04:28:09;;;;;;;7.23;5.30;;;3.80;99.90;;;;;;5095807;28;20203;-77
2023/03/29 04:30:37;;;;;;;6.67;5.40;;;3.80;99.90;;;;;;5095676;28;20231;-77
2023/03/29 04:33:04;;;;;;;8.27;5.87;;;3.70;99.90;;;;;;5095506;28;20234;-77
2023/03/29 04:35:31;;;;;;;7.20;5.73;;;3.70;99.90;;;;;;5095495;28;20636;-76
2023/03/29 04:37:58;;;;;;;8.23;6.27;;;3.70;99.90;;;;;;5095558;28;20200;-76
2023/03/29 04:40:25;;;;;;;7.60;6.47;;;3.70;99.90;;;;;;5095432;28;20257;-77
2023/03/29 04:42:53;;;;;;;9.27;5.67;;;3.70;99.90;;;;;;5095618;28;20199;-76
2023/03/29 04:45:20;;;;;;;10.17;6.57;;;3.70;99.90;;;;;;5095524;28;20287;-76
2023/03/29 04:47:48;;;;;;;7.70;6.30;;;3.80;99.90;;;;;;5095327;28;20674;-77
2023/03/29 04:50:14;;;;;;;8.33;6.57;;;3.80;99.90;;;;;;5095283;28;20206;-76
2023/03/29 04:52:41;;;;;;;8.83;7.13;;;3.80;99.90;;;;;;5095135;28;20234;-77
2023/03/29 04:55:08;;;;;;;8.03;6.80;;;3.80;99.90;;;;;;5095317;28;20268;-78
2023/03/29 04:57:35;;;;;;;10.37;6.90;;;3.80;99.90;;;;;;5095272;28;20231;-77
2023/03/29 05:00:07;;;;;;;11.13;7.30;;;3.80;99.90;;;;;;5095080;28;20230;-77
2023/03/29 05:02:33;;;;;;;9.67;6.63;;;3.80;99.90;;;;;;5095154;28;20268;-77
2023/03/29 05:05:01;;;;;;;8.30;6.80;;;3.80;99.90;;;;;;5094914;28;20243;-77
2023/03/29 05:07:28;;;;;;;9.90;6.97;;;3.80;99.90;;;;;;5094763;28;20200;-78
2023/03/29 05:09:55;;;;;;;9.33;6.97;;;3.80;99.90;;;;;;5095128;28;20195;-77
2023/03/29 05:12:22;;;;;;;9.10;7.17;;;3.80;99.90;;;;;;5094996;28;20322;-77
2023/03/29 05:14:48;;;;;;;10.40;7.10;;;3.90;99.90;;;;;;5094839;28;20246;-77
2023/03/29 05:17:15;;;;;;;8.87;7.03;;;3.90;99.90;;;;;;5094734;28;20232;-76
2023/03/29 05:19:42;;;;;;;10.47;7.47;;;4.00;99.90;;;;;;5094672;28;20196;-76
2023/03/29 05:22:10;;;;;;;9.80;7.60;;;4.00;99.90;;;;;;5094844;28;20207;-77
2023/03/29 05:24:37;;;;;;;9.97;7.43;;;4.10;99.90;;;;;;5094737;28;20277;-77
2023/03/29 05:27:03;;;;;;;9.50;7.40;;;4.10;99.90;;;;;;5094532;28;20800;-76
2023/03/29 05:29:31;;;;;;;8.47;6.90;;;4.10;99.90;;;;;;5094355;28;20196;-78
2023/03/29 05:31:58;;;;;;;11.50;7.37;;;4.20;99.90;;;;;;5094034;28;20631;-77
2023/03/29 05:34:25;;;;;;;9.33;6.83;;;4.20;99.90;;;;;;5094118;28;20232;-77
2023/03/29 05:36:52;;;;;;;8.43;6.87;;;4.30;99.90;;;;;;5094390;28;20220;-77
2023/03/29 05:39:20;;;;;;;9.63;7.10;;;4.30;99.90;;;;;;5094414;28;20200;-77
2023/03/29 05:41:46;;;;;;;8.63;6.93;;;4.30;99.90;;;;;;5093562;28;20710;-77
2023/03/29 05:44:13;;;;;;;11.17;7.20;;;4.40;99.90;;;;;;5094108;28;20257;-77
2023/03/29 05:46:39;;;;;;;7.80;7.00;;;4.50;99.90;;;;;;5093941;28;20607;-77
2023/03/29 05:49:07;;;;;;;10.67;6.97;;;4.50;99.90;;;;;;5093881;28;20259;-76
2023/03/29 05:51:34;;;;;;;7.47;6.27;;;4.50;99.90;;;;;;5093879;28;20533;-77
2023/03/29 05:54:00;;;;;;;7.07;6.23;;;4.60;99.90;;;;;;5093738;28;20322;-78
2023/03/29 05:56:28;;;;;;;8.93;6.40;;;4.70;99.90;;;;;;5093989;28;20224;-79
2023/03/29 05:58:57;;;;;;;8.33;6.90;;;4.70;99.90;;;;;;5093769;28;20227;-77
2023/03/29 06:01:24;;;;;;;8.47;6.43;;;4.70;99.90;;;;;;5093630;28;20245;-77
2023/03/29 06:03:51;;;;;;;9.87;6.80;;;4.80;99.90;;;;;;5093509;28;20200;-78
2023/03/29 06:06:18;;;;;;;12.57;9.40;;;4.90;99.90;;;;;;5093853;28;20224;-78
2023/03/29 06:08:45;;;;;;;9.67;6.57;;;4.90;99.90;;;;;;5093811;28;20227;-78
2023/03/29 06:11:13;;;;;;;8.63;6.60;;;4.90;99.90;;;;;;5093708;28;20192;-77
2023/03/29 06:13:41;;;;;;;7.47;6.27;;;5.00;99.90;;;;;;5093689;28;20208;-78
2023/03/29 06:16:09;;;;;;;8.63;6.10;;;5.00;99.90;;;;;;5093437;28;20224;-78
2023/03/29 06:18:37;;;;;;;9.27;6.60;;;5.10;99.90;;;;;;5093716;28;20261;-77
2023/03/29 06:21:04;;;;;;;9.57;6.10;;;5.10;99.90;;;;;;5093585;28;20200;-78
2023/03/29 06:23:31;;;;;;;6.30;5.40;;;5.20;99.90;;;;;;5093375;28;20231;-79
2023/03/29 06:25:58;;;;;;;11.27;7.10;;;5.30;99.90;;;;;;5093661;28;20196;-78
2023/03/29 06:28:26;;;;;;;10.50;6.33;;;5.30;99.90;;;;;;5093542;28;20204;-77
2023/03/29 06:30:55;;;;;;;8.23;5.60;;;5.40;99.90;;;;;;5094005;28;20196;-76
2023/03/29 06:33:24;;;;;;;10.57;5.80;;;5.40;99.90;;;;;;5093256;28;20228;-78
2023/03/29 06:35:50;;;;;;;7.70;5.53;;;5.50;99.90;;;;;;5093301;28;20324;-79
2023/03/29 06:38:18;;;;;;;7.53;5.83;;;5.60;99.90;;;;;;5093385;28;20231;-79
2023/03/29 06:40:45;;;;;;;6.83;5.57;;;5.70;99.90;;;;;;5093370;28;20192;-76
2023/03/29 06:43:11;;;;;;;9.00;6.00;;;5.70;99.90;;;;;;5093260;28;20204;-80
2023/03/29 06:45:38;;;;;;;8.43;6.07;;;5.70;99.90;;;;;;5093438;28;20231;-76
2023/03/29 06:48:07;;;;;;;9.50;6.07;;;5.80;99.90;;;;;;5093200;28;20559;-77
2023/03/29 06:50:34;;;;;;;8.37;5.37;;;5.90;99.90;;;;;;5093163;28;20239;-79
2023/03/29 06:53:01;;;;;;;6.93;5.60;;;6.00;99.90;;;;;;5092459;28;20222;-76
2023/03/29 06:55:27;;;;;;;12.80;6.47;;;6.10;99.90;;;;;;5092623;28;20216;-77
2023/03/29 06:57:54;;;;;;;7.93;6.23;;;6.20;99.90;;;;;;5092915;28;20227;-78
2023/03/29 07:00:27;;;;;;;7.03;5.30;;;6.40;99.90;;;;;;5093069;28;20235;-78
2023/03/29 07:02:54;;;;;;;9.30;5.80;;;6.60;99.90;;;;;;5092988;28;20198;-78
2023/03/29 07:05:22;;;;;;;8.77;5.90;;;6.70;99.90;;;;;;5093134;28;20200;-78
2023/03/29 07:07:58;;;;;;;9.87;6.87;;;7.00;99.90;;;;;;5092641;28;20211;-78
2023/03/29 07:10:31;;;;;;;8.77;6.00;;;7.10;99.90;;;;;;5092803;28;20200;-78
2023/03/29 07:12:59;;;;;;;8.83;5.00;;;7.20;99.90;;;;;;5092835;28;20205;-78
2023/03/29 07:15:26;;;;;;;10.83;6.67;;;7.20;99.90;;;;;;5092574;28;20223;-75
2023/03/29 07:17:53;;;;;;;6.47;4.53;;;7.20;99.90;;;;;;5092753;28;20211;-77
2023/03/29 07:20:21;;;;;;;5.37;4.83;;;7.40;99.90;;;;;;5092516;28;20231;-76
2023/03/29 07:22:50;;;;;;;7.10;4.80;;;7.30;99.90;;;;;;5092529;28;20292;-76
2023/03/29 07:25:17;;;;;;;7.33;4.50;;;7.60;99.90;;;;;;5092616;28;20196;-79
2023/03/29 07:27:46;;;;;;;6.70;4.90;;;7.80;99.90;;;;;;5076626;28;20228;-78
2023/03/29 07:30:15;;;;;;;7.07;4.20;;;8.10;99.90;;;;;;5072261;28;20212;-78
2023/03/29 07:32:44;;;;;;;5.40;4.13;;;8.00;99.90;;;;;;5092271;28;20211;-78
2023/03/29 07:35:11;;;;;;;5.60;4.33;;;8.00;99.90;;;;;;5092224;28;20200;-78
2023/03/29 07:37:39;;;;;;;6.97;4.40;;;7.90;99.90;;;;;;5092214;28;20200;-77
2023/03/29 07:40:14;;;;;;;6.23;4.03;;;7.90;99.90;;;;;;5092516;28;20235;-78
2023/03/29 07:42:42;;;;;;;5.77;4.50;;;7.80;99.90;;;;;;5092395;28;20199;-79
2023/03/29 07:45:12;;;;;;;6.00;3.93;;;7.90;99.90;;;;;;5092344;28;20200;-76
2023/03/29 07:47:39;;;;;;;5.97;4.40;;;8.00;99.90;;;;;;5092004;28;20288;-78
2023/03/29 07:50:07;;;;;;;6.03;4.47;;;8.30;99.90;;;;;;5092230;28;20686;-77
2023/03/29 07:52:35;;;;;;;7.27;4.77;;;8.20;99.90;;;;;;5092285;28;20192;-77
2023/03/29 07:55:02;;;;;;;5.00;4.30;;;8.30;99.90;;;;;;5092381;28;20693;-77
2023/03/29 07:57:30;;;;;;;6.43;4.13;;;8.70;99.90;;;;;;5091938;28;20313;-78
2023/03/29 07:59:57;;;;;;;6.73;4.63;;;8.80;99.90;;;;;;5092082;28;20648;-78
2023/03/29 08:02:23;;;;;;;6.10;4.40;;;8.60;99.90;;;;;;5091996;28;20192;-77
2023/03/29 08:04:50;;;;;;;4.67;3.93;;;8.50;99.90;;;;;;5092821;28;20197;-79
2023/03/29 08:07:18;;;;;;;6.47;4.20;;;8.50;99.90;;;;;;5095788;28;20231;-77
2023/03/29 08:09:45;;;;;;;4.27;3.60;;;8.70;99.90;;;;;;5095876;28;20571;-77
2023/03/29 08:12:12;;;;;;;4.97;4.17;;;8.80;99.90;;;;;;5095633;28;20220;-76
2023/03/29 08:14:40;;;;;;;5.50;4.57;;;9.10;99.90;;;;;;5095784;28;20213;-78
2023/03/29 08:17:06;;;;;;;4.87;3.90;;;9.30;99.90;;;;;;5095622;28;20255;-78
2023/03/29 08:19:33;;;;;;;3.77;3.43;;;9.60;99.90;;;;;;5095619;28;20208;-78
2023/03/29 08:22:00;;;;;;;4.63;3.50;;;9.70;99.90;;;;;;5095614;28;20229;-79
2023/03/29 08:24:26;;;;;;;4.30;3.60;;;9.70;99.90;;;;;;5095253;28;20743;-76
2023/03/29 08:26:53;;;;;;;3.93;3.33;;;9.80;99.90;;;;;;5095159;28;20196;-76
2023/03/29 08:29:21;;;;;;;5.13;2.80;;;10.10;99.90;;;;;;5095231;28;20231;-77
2023/03/29 08:31:49;;;;;;;3.53;2.77;;;9.80;99.90;;;;;;5095193;28;20637;-77
2023/03/29 08:34:15;;;;;;;3.23;2.53;;;9.90;99.90;;;;;;5095366;28;20228;-78
2023/03/29 08:36:42;;;;;;;3.70;2.90;;;9.80;99.90;;;;;;5095087;28;20687;-78
2023/03/29 08:39:09;;;;;;;5.40;2.73;;;9.90;99.90;;;;;;5095308;28;20238;-76
2023/03/29 08:41:46;;;;;;;7.57;2.90;;;10.00;99.90;;;;;;5094919;28;20265;-77
2023/03/29 08:44:26;;;;;;;4.50;2.63;;;10.00;99.90;;;;;;5095025;28;20634;-77
2023/03/29 08:47:01;;;;;;;4.27;2.40;;;10.10;99.90;;;;;;5095042;28;20283;-76
2023/03/29 08:49:30;;;;;;;4.57;2.70;;;10.20;99.90;;;;;;5095054;28;20202;-77
2023/03/29 08:52:00;;;;;;;5.13;3.07;;;10.40;99.90;;;;;;5094852;28;20250;-78
2023/03/29 08:54:32;;;;;;;3.53;2.63;;;10.60;99.90;;;;;;5094313;28;20262;-77
2023/03/29 08:57:07;;;;;;;3.70;2.80;;;10.80;99.90;;;;;;5094688;28;20263;-76
2023/03/29 08:59:34;;;;;;;9.77;2.80;;;10.80;99.90;;;;;;5074664;28;20333;-77
2023/03/29 09:02:10;;;;;;;3.90;2.40;;;10.70;99.90;;;;;;5084001;28;20193;-77
2023/03/29 09:04:41;;;;;;;5.50;2.27;;;10.70;99.90;;;;;;5094820;28;20227;-77
2023/03/29 09:07:09;;;;;;;3.90;2.57;;;11.20;99.90;;;;;;5094489;28;20283;-78
2023/03/29 09:09:37;;;;;;;6.17;2.70;;;11.20;99.90;;;;;;5094555;28;20600;-77
2023/03/29 09:12:10;;;;;;;4.43;2.60;;;11.00;99.90;;;;;;5094595;28;20275;-77
2023/03/29 09:15:09;;;;;;;6.93;2.70;;;11.10;99.90;;;;;;5094827;28;20291;-78
2023/03/29 09:17:55;;;;;;;2.63;2.30;;;11.40;99.90;;;;;;5093409;28;20213;-77
2023/03/29 09:20:33;;;;;;;6.50;2.40;;;11.10;99.90;;;;;;5094592;28;20245;-77
2023/03/29 09:23:22;;;;;;;3.50;2.57;;;11.20;99.90;;;;;;5094239;28;20230;-77
2023/03/29 09:25:56;;;;;;;3.00;2.30;;;11.50;99.90;;;;;;5094412;28;20204;-77
2023/03/29 09:28:33;;;;;;;3.00;2.40;;;11.60;99.90;;;;;;5094462;28;20293;-78
2023/03/29 09:31:05;;;;;;;3.00;2.30;;;11.70;99.90;;;;;;5094223;28;20202;-77
2023/03/29 09:33:41;;;;;;;3.07;2.30;;;11.80;99.90;;;;;;5111550;28;20223;-77
2023/03/29 09:36:11;;;;;;;3.07;2.07;;;11.60;99.90;;;;;;5113899;28;20233;-77
2023/03/29 09:38:42;;;;;;;4.00;2.33;;;11.60;99.90;;;;;;5114559;28;20199;-78
2023/03/29 09:41:19;;;;;;;2.80;2.37;;;11.90;99.90;;;;;;5113956;28;20200;-77
2023/03/29 09:43:46;;;;;;;4.63;2.30;;;12.00;99.90;;;;;;5114380;28;20731;-77
2023/03/29 09:46:20;;;;;;;3.67;2.10;;;11.90;99.90;;;;;;5114560;28;20223;-77
2023/03/29 09:48:49;;;;;;;3.43;2.30;;;11.40;99.90;;;;;;5114635;28;20180;-77
2023/03/29 09:51:19;;;;;;;2.87;2.00;;;11.20;99.90;;;;;;5114625;28;20227;-76
2023/03/29 09:53:46;;;;;;;3.33;2.40;;;11.20;99.90;;;;;;5114491;28;20191;-77
2023/03/29 09:56:14;;;;;;;3.07;2.50;;;11.50;99.90;;;;;;5114317;28;20244;-77
2023/03/29 09:58:43;;;;;;;3.20;2.23;;;11.00;99.90;;;;;;5114092;28;20239;-78
2023/03/29 10:01:14;;;;;;;4.13;2.43;;;11.20;99.90;;;;;;5108271;28;20666;-77
2023/03/29 10:03:42;;;;;;;2.40;2.20;;;11.20;99.90;;;;;;5093957;28;20201;-77
2023/03/29 10:06:12;;;;;;;3.73;2.40;;;11.10;99.90;;;;;;5093892;28;20289;-77
2023/03/29 10:08:40;;;;;;;4.93;2.83;;;10.70;99.90;;;;;;5093811;28;20867;-76
2023/03/29 10:11:12;;;;;;;3.60;2.40;;;11.00;99.90;;;;;;5093168;28;20232;-76
2023/03/29 10:13:44;;;;;;;3.40;2.30;;;10.60;99.90;;;;;;5093612;28;20247;-77
2023/03/29 10:16:19;;;;;;;3.30;2.50;;;10.60;99.90;;;;;;5093747;28;20227;-77
2023/03/29 10:18:46;;;;;;;6.67;2.43;;;10.60;99.90;;;;;;5093724;28;20262;-76
2023/03/29 10:21:15;;;;;;;5.30;2.60;;;10.50;99.90;;;;;;5093504;28;20652;-77
2023/03/29 10:23:42;;;;;;;5.93;2.40;;;10.70;99.90;;;;;;5093592;28;20397;-77
2023/03/29 10:26:19;;;;;;;5.53;2.70;;;10.60;99.90;;;;;;5093437;28;20485;-77
2023/03/29 10:28:45;;;;;;;3.23;2.27;;;10.40;99.90;;;;;;5093694;28;20228;-77
2023/03/29 10:31:18;;;;;;;6.73;2.67;;;10.40;99.90;;;;;;5093675;28;20200;-76
2023/03/29 10:33:51;;;;;;;3.43;2.50;;;10.30;99.90;;;;;;5093482;28;20795;-77
2023/03/29 10:36:19;;;;;;;4.03;2.70;;;10.10;99.90;;;;;;5093206;28;20234;-77
2023/03/29 10:38:46;;;;;;;5.70;3.10;;;10.40;99.90;;;;;;5093221;28;20234;-77
2023/03/29 10:41:14;;;;;;;3.87;2.63;;;10.30;99.90;;;;;;5093436;28;20314;-77
2023/03/29 10:43:44;;;;;;;5.33;2.57;;;10.30;99.90;;;;;;5093332;28;20197;-76
2023/03/29 10:46:18;;;;;;;6.30;2.50;;;10.40;99.90;;;;;;5093378;28;20682;-75
2023/03/29 10:48:47;;;;;;;3.67;2.40;;;10.60;99.90;;;;;;5093147;28;20220;-80
2023/03/29 10:51:16;;;;;;;5.80;2.57;;;10.50;99.90;;;;;;5093480;28;20595;-77
2023/03/29 10:53:45;;;;;;;3.90;2.77;;;10.40;99.90;;;;;;5093506;28;20192;-77
2023/03/29 10:56:26;;;;;;;7.87;2.80;;;10.50;99.90;;;;;;5093134;28;20313;-77
2023/03/29 10:59:08;;;;;;;5.53;2.97;;;10.50;99.90;;;;;;5092991;28;20245;-78
2023/03/29 11:01:44;;;;;;;8.77;2.50;;;10.40;99.90;;;;;;5092776;28;20223;-77
2023/03/29 11:04:21;;;;;;;4.23;2.63;;;10.50;99.90;;;;;;5092790;28;20234;-78
2023/03/29 11:06:59;;;;;;;7.37;3.00;;;10.60;99.90;;;;;;5092945;28;20200;-77
2023/03/29 11:09:41;;;;;;;5.37;2.63;;;10.40;99.90;;;;;;5092803;28;20238;-77
2023/03/29 11:12:13;;;;;;;6.37;2.90;;;10.40;99.90;;;;;;5092608;28;20288;-77
2023/03/29 11:14:51;;;;;;;3.60;2.80;;;10.50;99.90;;;;;;5092826;28;20311;-78
2023/03/29 11:17:28;;;;;;;7.87;3.23;;;10.40;99.90;;;;;;5092685;28;20258;-77
2023/03/29 11:20:04;;;;;;;7.97;2.87;;;10.30;99.90;;;;;;5092338;28;20231;-77
2023/03/29 11:22:41;;;;;;;4.00;3.00;;;10.20;99.90;;;;;;5092671;28;20675;-77
2023/03/29 11:25:24;;;;;;;7.80;3.40;;;10.10;99.90;;;;;;5093137;28;20235;-77
2023/03/29 11:27:56;;;;;;;7.00;3.27;;;10.40;99.90;;;;;;5092979;28;20239;-76
2023/03/29 11:30:29;;;;;;;4.00;2.73;;;10.60;99.90;;;;;;5092689;28;20200;-78
2023/03/29 11:33:07;;;;;;;5.77;2.67;;;10.90;99.90;;;;;;5086582;28;20257;-75
2023/03/29 11:35:53;;;;;;;5.53;3.40;;;11.60;99.90;;;;;;5091172;28;20203;-75
2023/03/29 11:38:27;;;;;;;4.73;3.20;;;11.80;99.90;;;;;;5092368;28;20636;-77
2023/03/29 11:41:01;;;;;;;6.63;2.90;;;11.80;99.90;;;;;;5094951;28;20239;-76
2023/03/29 11:43:34;;;;;;;5.30;3.10;;;11.50;99.90;;;;;;5096113;28;20197;-76
2023/03/29 11:46:07;;;;;;;5.83;2.80;;;11.60;99.90;;;;;;5096241;28;20204;-76
2023/03/29 11:48:39;;;;;;;5.43;3.20;;;12.00;99.90;;;;;;5096235;28;20245;-76
2023/03/29 11:51:12;;;;;;;5.80;3.17;;;12.20;99.90;;;;;;5096167;28;20228;-76
2023/03/29 11:53:45;;;;;;;6.50;3.40;;;12.30;99.90;;;;;;5095988;28;20607;-75
2023/03/29 11:56:17;;;;;;;4.57;2.70;;;12.70;99.90;;;;;;5096226;28;20251;-76
2023/03/29 11:58:48;;;;;;;8.13;3.10;;;13.30;99.90;;;;;;5096219;28;20266;-76
2023/03/29 12:01:18;;;;;;;6.03;2.87;;;13.80;99.90;;;;;;5095965;28;20603;-76
2023/03/29 12:03:51;;;;;;;6.67;3.10;;;14.50;99.90;;;;;;5095752;28;20602;-75
2023/03/29 12:06:22;;;;;;;4.23;2.70;;;13.90;99.90;;;;;;5095903;28;20239;-75
2023/03/29 12:08:54;;;;;;;5.10;2.80;;;13.90;99.90;;;;;;5096012;28;20227;-75
2023/03/29 12:11:29;;;;;;;6.50;2.97;;;13.70;99.90;;;;;;5095870;28;20209;-76
2023/03/29 12:14:01;;;;;;;3.73;2.80;;;13.60;99.90;;;;;;5095511;28;20203;-75
2023/03/29 12:16:31;;;;;;;4.50;3.20;;;13.70;99.90;;;;;;5095710;28;20665;-76
2023/03/29 12:19:02;;;;;;;3.87;2.80;;;13.40;99.90;;;;;;5095964;28;20653;-77
2023/03/29 12:21:30;;;;;;;5.67;3.30;;;13.60;99.90;;;;;;5095731;28;20663;-76
2023/03/29 12:23:57;;;;;;;5.87;3.10;;;14.30;99.90;;;;;;5095414;28;20297;-76
2023/03/29 12:26:57;;;;;;;3.53;2.80;;;14.60;99.90;;;;;;5095534;28;20678;-75
2023/03/29 12:29:39;;;;;;;3.38;2.67;;;15.10;99.90;;;;;;5095625;28;20196;-76
2023/03/29 12:32:22;;;;;;;5.60;3.00;;;15.30;99.90;;;;;;5095594;28;20626;-76
2023/03/29 12:35:03;;;;;;;4.30;2.70;;;15.10;99.90;;;;;;5095207;28;20232;-75
2023/03/29 12:37:38;;;;;;;4.40;2.50;;;15.60;99.90;;;;;;5094773;28;20268;-77
2023/03/29 12:40:11;;;;;;;4.90;3.10;;;15.90;99.90;;;;;;5095625;28;20247;-77
2023/03/29 12:42:46;;;;;;;6.32;3.15;;;14.90;99.90;;;;;;5083886;28;20197;-79
2023/03/29 12:45:18;;;;;;;3.83;2.40;;;15.40;99.90;;;;;;5074815;28;20285;-77
2023/03/29 12:47:46;;;;;;;4.95;2.83;;;15.40;99.90;;;;;;5094578;28;20667;-76
2023/03/29 12:50:24;;;;;;;4.57;2.40;;;15.90;99.90;;;;;;5095055;28;20205;-77
2023/03/29 12:52:51;;;;;;;5.15;2.65;;;16.10;99.90;;;;;;5073267;28;20683;-77
2023/03/29 12:55:24;;;;;;;5.35;2.40;;;15.70;99.90;;;;;;5074289;28;20258;-78
2023/03/29 12:58:01;;;;;;;6.32;2.70;;;15.80;99.90;;;;;;5094224;28;20752;-78
2023/03/29 13:00:34;;;;;;;3.55;2.67;;;15.60;99.90;;;;;;5094822;28;20222;-78
2023/03/29 13:03:03;;;;;;;3.72;2.50;;;15.80;99.90;;;;;;5095478;28;20564;-76
2023/03/29 13:05:33;;;;;;;3.20;2.58;;;16.50;99.20;;;;;;5094480;28;20227;-76
2023/03/29 13:08:19;;;;;;;3.95;2.85;;;17.00;96.90;;;;;;5094586;28;20249;-76